createdAt,value
2018-01-28T00:00:39.524Z,15.77
2018-01-28T00:03:07.811Z,15.80
2018-01-28T00:05:36.206Z,16.30
2018-01-28T00:08:04.495Z,14.97
2018-01-28T00:10:32.761Z,14.77
2018-01-28T00:13:00.863Z,18.37
2018-01-28T00:15:28.992Z,19.47
2018-01-28T00:17:57.124Z,16.03
2018-01-28T00:20:25.391Z,15.83
2018-01-28T00:22:53.654Z,15.63
2018-01-28T00:25:21.938Z,19.10
2018-01-28T00:27:50.232Z,14.50
2018-01-28T00:30:18.940Z,16.47
2018-01-28T00:32:47.207Z,17.63
2018-01-28T00:35:16.269Z,14.97
2018-01-28T00:37:44.543Z,20.93
2018-01-28T00:40:12.501Z,15.60
2018-01-28T00:42:40.477Z,13.80
2018-01-28T00:45:08.760Z,10.03
2018-01-28T00:47:37.037Z,14.17
2018-01-28T00:50:04.992Z,14.00
2018-01-28T00:52:33.269Z,11.40
2018-01-28T00:55:01.561Z,14.93
2018-01-28T00:57:29.833Z,12.23
2018-01-28T00:59:58.114Z,16.27
2018-01-28T01:02:26.394Z,16.60
2018-01-28T01:04:55.444Z,16.87
2018-01-28T01:07:24.629Z,11.63
2018-01-28T01:09:52.898Z,14.67
2018-01-28T01:12:21.181Z,24.03
2018-01-28T01:14:49.636Z,16.83
2018-01-28T01:17:17.924Z,17.53
2018-01-28T01:19:46.986Z,13.87
2018-01-28T01:22:14.688Z,14.57
2018-01-28T01:24:42.988Z,15.37
2018-01-28T01:27:11.282Z,14.57
2018-01-28T01:29:39.529Z,15.93
2018-01-28T01:32:08.561Z,19.20
2018-01-28T01:34:36.855Z,16.30
2018-01-28T01:37:05.142Z,23.30
2018-01-28T01:39:33.408Z,20.57
2018-01-28T01:42:01.705Z,18.13
2018-01-28T01:44:30.765Z,22.90
2018-01-28T01:46:59.050Z,20.80
2018-01-28T01:49:35.824Z,18.53
2018-01-28T01:52:03.873Z,22.00
2018-01-28T01:54:32.972Z,20.33
2018-01-28T01:57:01.257Z,16.00
2018-01-28T01:59:29.524Z,25.37
2018-01-28T02:01:57.817Z,28.80
2018-01-28T02:04:26.094Z,23.47
2018-01-28T02:06:54.379Z,21.73
2018-01-28T02:09:22.648Z,25.77
2018-01-28T02:11:50.929Z,25.63
2018-01-28T02:14:19.214Z,22.97
2018-01-28T02:16:47.514Z,25.90
2018-01-28T02:19:15.797Z,26.87
2018-01-28T02:21:44.065Z,18.20
2018-01-28T02:24:12.352Z,22.17
2018-01-28T02:26:41.405Z,19.53
2018-01-28T02:29:09.673Z,20.83
2018-01-28T02:31:37.951Z,18.57
2018-01-28T02:34:06.266Z,20.17
2018-01-28T02:36:34.692Z,17.87
2018-01-28T02:39:02.992Z,30.63
2018-01-28T02:41:31.329Z,24.00
2018-01-28T02:43:59.595Z,21.97
2018-01-28T02:46:27.993Z,20.80
2018-01-28T02:48:56.268Z,22.20
2018-01-28T02:51:24.524Z,14.70
2018-01-28T02:53:52.246Z,27.30
2018-01-28T02:56:21.302Z,16.87
2018-01-28T02:58:49.581Z,23.30
2018-01-28T03:01:17.290Z,24.93
2018-01-28T03:03:46.330Z,31.07
2018-01-28T03:06:14.604Z,24.70
2018-01-28T03:08:42.853Z,23.90
2018-01-28T03:11:11.137Z,21.97
2018-01-28T03:13:39.395Z,27.03
2018-01-28T03:16:07.675Z,29.90
2018-01-28T03:18:36.725Z,19.67
2018-01-28T03:21:04.995Z,27.80
2018-01-28T03:23:33.272Z,23.53
2018-01-28T03:26:01.726Z,27.67
2018-01-28T03:28:29.976Z,14.07
2018-01-28T03:30:58.060Z,25.07
2018-01-28T03:33:26.154Z,28.70
2018-01-28T03:35:55.043Z,24.67
2018-01-28T03:38:23.288Z,24.83
2018-01-28T03:40:51.551Z,24.63
2018-01-28T03:43:19.824Z,24.33
2018-01-28T03:45:48.095Z,19.87
2018-01-28T03:48:16.386Z,29.07
2018-01-28T03:50:44.631Z,22.30
2018-01-28T03:53:13.049Z,24.57
2018-01-28T03:55:41.384Z,20.30
2018-01-28T03:58:09.664Z,23.83
2018-01-28T04:00:37.360Z,16.70
2018-01-28T04:03:06.388Z,20.13
2018-01-28T04:05:34.370Z,26.93
2018-01-28T04:08:02.636Z,23.33
2018-01-28T04:10:31.079Z,25.23
2018-01-28T04:12:59.396Z,28.07
2018-01-28T04:15:27.665Z,18.83
2018-01-28T04:17:56.690Z,21.00
2018-01-28T04:20:24.656Z,18.93
2018-01-28T04:22:52.921Z,20.93
2018-01-28T04:25:21.215Z,28.90
2018-01-28T04:27:49.501Z,29.80
2018-01-28T04:30:17.785Z,21.97
2018-01-28T04:32:46.056Z,17.30
2018-01-28T04:35:14.337Z,24.87
2018-01-28T04:37:42.612Z,26.13
2018-01-28T04:40:11.289Z,23.53
2018-01-28T04:42:40.337Z,20.53
2018-01-28T04:45:08.589Z,22.33
2018-01-28T04:47:36.867Z,24.27
2018-01-28T04:50:05.113Z,18.30
2018-01-28T04:52:33.388Z,21.13
2018-01-28T04:55:01.656Z,27.30
2018-01-28T04:57:29.754Z,25.37
2018-01-28T04:59:57.830Z,19.27
2018-01-28T05:02:26.027Z,20.60
2018-01-28T05:04:54.100Z,25.33
2018-01-28T05:07:23.140Z,17.50
2018-01-28T05:09:51.257Z,28.83
2018-01-28T05:12:19.333Z,24.63
2018-01-28T05:14:47.610Z,24.70
2018-01-28T05:17:15.884Z,22.40
2018-01-28T05:19:43.977Z,24.00
2018-01-28T05:22:12.104Z,26.37
2018-01-28T05:24:40.367Z,24.80
2018-01-28T05:27:08.457Z,29.70
2018-01-28T05:29:36.722Z,30.43
2018-01-28T05:32:05.014Z,28.37
2018-01-28T05:34:33.284Z,23.40
2018-01-28T05:37:01.545Z,29.30
2018-01-28T05:39:29.929Z,31.47
2018-01-28T05:41:58.018Z,19.67
2018-01-28T05:44:26.281Z,22.80
2018-01-28T05:46:54.562Z,27.97
2018-01-28T05:49:22.840Z,25.17
2018-01-28T05:51:51.134Z,21.73
2018-01-28T05:54:19.386Z,21.90
2018-01-28T05:56:47.484Z,21.93
2018-01-28T05:59:15.745Z,29.57
2018-01-28T06:01:43.840Z,29.47
2018-01-28T06:04:12.105Z,28.67
2018-01-28T06:06:40.368Z,34.27
2018-01-28T06:09:08.649Z,28.87
2018-01-28T06:11:37.695Z,32.17
2018-01-28T06:14:06.751Z,30.57
2018-01-28T06:16:35.030Z,28.20
2018-01-28T06:19:02.923Z,29.63
2018-01-28T06:21:31.180Z,26.17
2018-01-28T06:23:59.256Z,27.67
2018-01-28T06:26:27.369Z,38.97
2018-01-28T06:28:56.229Z,29.30
2018-01-28T06:31:24.511Z,33.70
2018-01-28T06:33:52.904Z,27.50
2018-01-28T06:43:05.213Z,23.73
2018-01-28T06:45:33.490Z,26.73
2018-01-28T06:48:01.772Z,28.30
2018-01-28T06:50:30.171Z,28.90
2018-01-28T06:52:58.447Z,29.17
2018-01-28T06:55:26.720Z,25.27
2018-01-28T06:57:55.014Z,32.70
2018-01-28T07:00:23.289Z,31.70
2018-01-28T07:02:51.579Z,34.20
2018-01-28T07:05:19.259Z,39.87
2018-01-28T07:07:47.551Z,33.60
2018-01-28T07:10:15.821Z,28.33
2018-01-28T07:12:44.096Z,29.20
2018-01-28T07:15:12.364Z,24.67
2018-01-28T07:17:40.636Z,25.50
2018-01-28T07:20:08.591Z,34.33
2018-01-28T07:22:36.867Z,16.93
2018-01-28T07:25:05.251Z,24.33
2018-01-28T07:27:33.534Z,32.40
2018-01-28T07:30:01.815Z,31.17
2018-01-28T07:32:30.085Z,22.67
2018-01-28T07:34:58.373Z,29.00
2018-01-28T07:37:26.633Z,25.07
2018-01-28T07:39:54.931Z,27.33
2018-01-28T07:42:23.189Z,23.93
2018-01-28T07:44:51.468Z,20.07
2018-01-28T07:47:19.755Z,19.47
2018-01-28T07:49:48.029Z,19.77
2018-01-28T07:52:16.314Z,21.33
2018-01-28T07:54:44.413Z,23.83
2018-01-28T07:57:12.505Z,18.83
2018-01-28T07:59:40.755Z,23.50
2018-01-28T08:02:09.047Z,22.70
2018-01-28T08:04:37.323Z,20.47
2018-01-28T08:07:05.423Z,25.53
2018-01-28T08:09:33.502Z,20.13
2018-01-28T08:12:04.212Z,22.17
2018-01-28T08:14:35.746Z,19.97
2018-01-28T08:17:03.838Z,22.43
2018-01-28T08:19:32.122Z,23.93
2018-01-28T08:22:00.375Z,27.00
2018-01-28T08:24:29.222Z,25.07
2018-01-28T08:27:17.131Z,18.63
2018-01-28T08:29:45.219Z,19.67
2018-01-28T08:32:13.524Z,15.50
2018-01-28T08:34:41.803Z,20.00
2018-01-28T08:37:10.087Z,22.80
2018-01-28T08:39:38.180Z,18.57
2018-01-28T08:42:06.480Z,25.53
2018-01-28T08:44:34.592Z,20.83
2018-01-28T08:47:02.689Z,18.33
2018-01-28T08:49:30.997Z,21.20
2018-01-28T08:51:59.323Z,18.73
2018-01-28T08:54:27.612Z,19.87
2018-01-28T08:56:55.912Z,17.77
2018-01-28T08:59:24.542Z,19.10
2018-01-28T09:01:53.579Z,15.93
2018-01-28T09:04:21.867Z,18.30
2018-01-28T09:06:50.141Z,18.43
2018-01-28T09:09:18.436Z,19.33
2018-01-28T09:11:46.714Z,19.97
2018-01-28T09:14:14.999Z,13.33
2018-01-28T09:16:43.484Z,16.23
2018-01-28T09:19:11.920Z,15.70
2018-01-28T09:21:40.197Z,17.10
2018-01-28T09:24:08.489Z,15.60
2018-01-28T09:26:36.783Z,17.87
2018-01-28T09:29:05.055Z,15.13
2018-01-28T09:31:33.343Z,11.33
2018-01-28T09:34:01.301Z,14.33
2018-01-28T09:36:29.590Z,11.53
2018-01-28T09:38:57.908Z,15.30
2018-01-28T09:41:26.068Z,12.07
2018-01-28T09:43:54.376Z,13.70
2018-01-28T09:46:22.497Z,12.03
2018-01-28T09:48:51.607Z,14.00
2018-01-28T09:51:19.914Z,10.70
2018-01-28T09:53:48.221Z,16.30
2018-01-28T09:56:16.514Z,17.67
2018-01-28T09:58:44.818Z,15.93
2018-01-28T10:01:13.858Z,12.47
2018-01-28T10:03:42.135Z,14.83
2018-01-28T10:06:10.445Z,13.73
2018-01-28T10:08:38.731Z,15.90
2018-01-28T10:11:07.017Z,13.50
2018-01-28T10:13:35.302Z,16.73
2018-01-28T10:16:03.592Z,14.13
2018-01-28T10:18:31.899Z,15.83
2018-01-28T10:21:00.184Z,15.03
2018-01-28T10:23:28.865Z,13.63
2018-01-28T10:25:57.899Z,14.60
2018-01-28T10:28:26.177Z,14.37
2018-01-28T10:30:54.501Z,12.40
2018-01-28T10:33:22.829Z,16.67
2018-01-28T10:35:51.122Z,14.27
2018-01-28T10:38:19.459Z,15.87
2018-01-28T10:40:48.570Z,13.77
2018-01-28T10:43:16.865Z,16.20
2018-01-28T10:45:45.161Z,15.93
2018-01-28T10:48:13.444Z,8.83
2018-01-28T10:50:41.731Z,15.97
2018-01-28T10:53:09.823Z,12.47
2018-01-28T10:55:38.111Z,16.00
2018-01-28T10:58:06.413Z,11.10
2018-01-28T11:00:34.826Z,16.47
2018-01-28T11:03:03.125Z,12.07
2018-01-28T11:05:31.418Z,16.77
2018-01-28T11:07:59.811Z,12.40
2018-01-28T11:10:28.109Z,15.67
2018-01-28T11:12:56.416Z,10.10
2018-01-28T11:15:24.772Z,13.53
2018-01-28T11:17:53.142Z,12.27
2018-01-28T11:20:21.443Z,16.20
2018-01-28T11:22:49.551Z,17.83
2018-01-28T11:25:17.837Z,11.20
2018-01-28T11:27:46.146Z,12.70
2018-01-28T11:30:14.462Z,11.87
2018-01-28T11:32:42.805Z,17.23
2018-01-28T11:35:11.259Z,12.23
2018-01-28T11:37:40.521Z,15.77
2018-01-28T11:40:08.627Z,14.83
2018-01-28T11:42:37.706Z,16.93
2018-01-28T11:45:06.014Z,14.13
2018-01-28T11:47:35.558Z,15.90
2018-01-28T11:50:03.660Z,16.73
2018-01-28T11:52:31.982Z,13.80
2018-01-28T11:55:00.231Z,14.50
2018-01-28T11:57:28.510Z,14.80
2018-01-28T11:59:56.800Z,14.30
2018-01-28T12:02:25.843Z,12.27
2018-01-28T12:04:54.906Z,14.00
2018-01-28T12:07:22.970Z,9.97
2018-01-28T12:09:51.261Z,10.27
2018-01-28T12:12:19.526Z,13.93
2018-01-28T12:14:47.837Z,10.83
2018-01-28T12:17:16.338Z,13.73
2018-01-28T12:19:44.658Z,12.20
2018-01-28T12:22:12.938Z,13.30
2018-01-28T12:24:41.242Z,13.20
2018-01-28T12:27:08.957Z,12.70
2018-01-28T12:29:38.019Z,13.07
2018-01-28T12:32:06.879Z,12.90
2018-01-28T12:34:35.141Z,11.87
2018-01-28T12:37:03.413Z,13.97
2018-01-28T12:39:31.705Z,10.30
2018-01-28T12:41:59.988Z,9.40
2018-01-28T12:44:28.290Z,7.80
2018-01-28T12:46:56.569Z,7.73
2018-01-28T12:49:24.854Z,13.53
2018-01-28T12:51:53.125Z,7.33
2018-01-28T12:54:21.401Z,10.37
2018-01-28T12:56:49.667Z,8.20
2018-01-28T12:59:18.961Z,10.77
2018-01-28T13:01:47.236Z,10.43
2018-01-28T13:04:15.709Z,11.50
2018-01-28T13:06:43.986Z,7.37
2018-01-28T13:09:12.250Z,9.93
2018-01-28T13:11:40.549Z,11.63
2018-01-28T13:14:08.839Z,11.30
2018-01-28T13:16:37.324Z,11.23
2018-01-28T13:19:05.588Z,13.03
2018-01-28T13:21:33.848Z,11.87
2018-01-28T13:24:02.122Z,9.30
2018-01-28T13:26:30.325Z,6.47
2018-01-28T13:28:58.770Z,4.20
2018-01-28T13:31:27.063Z,10.60
2018-01-28T13:33:55.339Z,11.00
2018-01-28T13:36:23.613Z,7.53
2018-01-28T13:38:51.914Z,7.00
2018-01-28T13:41:20.204Z,7.23
2018-01-28T13:43:48.509Z,9.23
2018-01-28T13:46:16.788Z,6.13
2018-01-28T13:48:45.095Z,8.03
2018-01-28T13:51:13.395Z,7.83
2018-01-28T13:53:41.691Z,12.50
2018-01-28T13:56:09.982Z,7.27
2018-01-28T13:58:38.267Z,8.83
2018-01-28T14:01:06.560Z,10.43
2018-01-28T14:03:34.836Z,7.43
2018-01-28T14:06:03.885Z,7.00
2018-01-28T14:08:32.161Z,10.67
2018-01-28T14:11:01.225Z,9.27
2018-01-28T14:13:29.271Z,10.30
2018-01-28T14:15:57.582Z,11.97
2018-01-28T14:18:25.140Z,13.83
2018-01-28T14:20:53.660Z,11.80
2018-01-28T14:23:21.955Z,13.33
2018-01-28T14:25:50.267Z,12.17
2018-01-28T14:28:18.403Z,7.70
2018-01-28T14:30:47.359Z,10.50
2018-01-28T14:33:15.444Z,12.30
2018-01-28T14:35:43.734Z,8.07
2018-01-28T14:38:12.002Z,15.43
2018-01-28T14:40:40.290Z,14.70
2018-01-28T14:43:09.158Z,12.70
2018-01-28T14:45:37.268Z,14.93
2018-01-28T14:48:05.559Z,12.03
2018-01-28T14:50:33.846Z,10.33
2018-01-28T14:53:02.137Z,15.27
2018-01-28T14:55:31.193Z,9.50
2018-01-28T14:57:59.488Z,13.43
2018-01-28T15:00:27.762Z,12.47
2018-01-28T15:02:56.056Z,10.17
2018-01-28T15:05:24.377Z,15.00
2018-01-28T15:07:52.783Z,10.97
2018-01-28T15:10:21.087Z,10.93
2018-01-28T15:12:49.370Z,13.50
2018-01-28T15:15:17.674Z,13.23
2018-01-28T15:17:46.015Z,14.10
2018-01-28T15:20:14.314Z,14.13
2018-01-28T15:22:43.358Z,14.07
2018-01-28T15:25:12.443Z,12.57
2018-01-28T15:27:40.761Z,10.63
2018-01-28T15:30:09.101Z,18.53
2018-01-28T15:32:37.378Z,13.73
2018-01-28T15:35:05.670Z,13.63
2018-01-28T15:37:34.882Z,19.10
2018-01-28T15:40:03.948Z,11.87
2018-01-28T15:42:32.913Z,14.03
2018-01-28T15:45:01.015Z,15.00
2018-01-28T15:47:29.161Z,13.93
2018-01-28T15:49:57.426Z,17.33
2018-01-28T15:52:25.747Z,12.00
2018-01-28T15:54:53.856Z,10.63
2018-01-28T15:57:22.167Z,14.83
2018-01-28T15:59:50.487Z,9.40
2018-01-28T16:02:18.800Z,17.10
2018-01-28T16:04:47.095Z,11.23
2018-01-28T16:07:15.487Z,11.40
2018-01-28T16:09:44.674Z,10.97
2018-01-28T16:12:12.994Z,8.30
2018-01-28T16:14:41.304Z,13.63
2018-01-28T16:17:10.417Z,12.27
2018-01-28T16:19:38.696Z,9.30
2018-01-28T16:22:07.008Z,11.67
2018-01-28T16:24:35.370Z,10.93
2018-01-28T16:27:03.663Z,9.50
2018-01-28T16:29:32.742Z,7.97
2018-01-28T16:32:01.050Z,7.77
2018-01-28T16:34:30.158Z,9.97
2018-01-28T16:36:58.468Z,8.47
2018-01-28T16:39:26.768Z,8.17
2018-01-28T16:41:55.091Z,13.83
2018-01-28T16:44:24.149Z,9.53
2018-01-28T16:46:52.478Z,6.33
2018-01-28T16:49:20.775Z,9.13
2018-01-28T16:51:49.054Z,7.60
2018-01-28T16:54:17.461Z,10.80
2018-01-28T16:56:45.765Z,8.40
2018-01-28T16:59:14.096Z,6.73
2018-01-28T17:01:42.452Z,7.37
2018-01-28T17:04:10.763Z,7.07
2018-01-28T17:06:39.215Z,9.00
2018-01-28T17:09:10.059Z,9.00
2018-01-28T17:11:38.802Z,5.53
2018-01-28T17:14:06.935Z,7.63
2018-01-28T17:16:35.213Z,6.27
2018-01-28T17:19:03.174Z,6.60
2018-01-28T17:21:31.491Z,7.00
2018-01-28T17:24:00.203Z,7.83
2018-01-28T17:26:28.469Z,5.90
2018-01-28T17:28:57.527Z,7.27
2018-01-28T17:31:26.578Z,5.47
2018-01-28T17:33:54.850Z,8.03
2018-01-28T17:36:23.896Z,11.10
2018-01-28T17:38:52.173Z,11.87
2018-01-28T17:41:20.286Z,10.00
2018-01-28T17:43:48.555Z,6.97
2018-01-28T17:46:16.539Z,8.63
2018-01-28T17:48:44.814Z,9.33
2018-01-28T17:51:13.130Z,10.60
2018-01-28T17:53:41.405Z,7.67
2018-01-28T17:56:10.576Z,7.50
2018-01-28T17:58:38.881Z,10.07
2018-01-28T18:01:07.836Z,7.13
2018-01-28T18:03:36.167Z,10.30
2018-01-28T18:06:04.509Z,9.87
2018-01-28T18:08:33.583Z,8.17
2018-01-28T18:11:01.848Z,7.17
2018-01-28T18:13:30.153Z,7.03
2018-01-28T18:15:58.444Z,12.20
2018-01-28T18:18:26.798Z,15.70
2018-01-28T18:20:55.063Z,11.17
2018-01-28T18:23:23.343Z,7.87
2018-01-28T18:25:51.811Z,12.53
2018-01-28T18:28:20.866Z,13.27
2018-01-28T18:30:49.354Z,12.80
2018-01-28T18:33:17.638Z,11.97
2018-01-28T18:35:45.994Z,13.07
2018-01-28T18:38:14.419Z,12.23
2018-01-28T18:40:51.907Z,11.73
2018-01-28T18:43:20.192Z,10.33
2018-01-28T18:45:48.491Z,11.80
2018-01-28T18:48:17.563Z,11.80
2018-01-28T18:50:46.733Z,9.87
2018-01-28T18:53:15.909Z,12.47
2018-01-28T18:55:44.258Z,9.87
2018-01-28T18:58:12.545Z,10.57
2018-01-28T19:00:40.807Z,10.27
2018-01-28T19:03:08.794Z,10.93
2018-01-28T19:05:37.076Z,10.43
2018-01-28T19:08:05.376Z,9.43
2018-01-28T19:10:33.700Z,9.37
2018-01-28T19:13:02.005Z,9.20
2018-01-28T19:15:30.312Z,8.13
2018-01-28T19:17:58.585Z,11.80
2018-01-28T19:20:26.886Z,8.13
2018-01-28T19:22:55.192Z,10.27
2018-01-28T19:25:23.496Z,7.57
2018-01-28T19:27:52.453Z,10.27
2018-01-28T19:30:20.823Z,8.63
2018-01-28T19:32:49.114Z,10.17
2018-01-28T19:35:17.603Z,9.80
2018-01-28T19:37:45.911Z,7.13
2018-01-28T19:40:14.386Z,10.30
2018-01-28T19:42:42.693Z,9.33
2018-01-28T19:45:11.032Z,7.83
2018-01-28T19:47:39.350Z,10.67
2018-01-28T19:50:07.804Z,7.13
2018-01-28T19:52:36.864Z,11.43
2018-01-28T19:55:05.138Z,9.00
2018-01-28T19:57:34.189Z,11.00
2018-01-28T20:00:02.999Z,7.80
2018-01-28T20:02:31.297Z,9.63
2018-01-28T20:04:59.573Z,6.73
2018-01-28T20:07:27.884Z,12.30
2018-01-28T20:09:56.162Z,8.27
2018-01-28T20:12:24.421Z,7.03
2018-01-28T20:14:53.087Z,6.43
2018-01-28T20:17:21.372Z,10.03
2018-01-28T20:19:49.944Z,9.63
2018-01-28T20:22:19.257Z,11.70
2018-01-28T20:24:47.691Z,9.60
2018-01-28T20:27:16.232Z,12.07
2018-01-28T20:29:53.419Z,10.37
2018-01-28T20:32:21.914Z,11.93
2018-01-28T20:34:50.240Z,10.20
2018-01-28T20:37:19.805Z,12.17
2018-01-28T20:39:48.712Z,10.03
2018-01-28T20:42:17.206Z,10.80
2018-01-28T20:44:45.344Z,8.10
2018-01-28T20:47:13.631Z,13.03
2018-01-28T20:49:42.705Z,17.73
2018-01-28T20:52:10.983Z,11.83
2018-01-28T20:54:39.273Z,13.07
2018-01-28T20:57:07.552Z,16.03
2018-01-28T20:59:35.852Z,13.90
2018-01-28T21:02:03.898Z,16.63
2018-01-28T21:04:32.201Z,12.67
2018-01-28T21:07:01.243Z,13.90
2018-01-28T21:09:29.510Z,16.83
2018-01-28T21:11:57.785Z,16.30
2018-01-28T21:14:26.044Z,13.10
2018-01-28T21:16:55.135Z,14.57
2018-01-28T21:19:24.168Z,13.37
2018-01-28T21:21:52.482Z,15.70
2018-01-28T21:24:21.530Z,15.13
2018-01-28T21:26:50.618Z,14.67
2018-01-28T21:29:19.068Z,14.07
2018-01-28T21:31:47.374Z,13.60
2018-01-28T21:34:15.660Z,15.47
2018-01-28T21:36:43.974Z,20.33
2018-01-28T21:39:12.292Z,16.83
2018-01-28T21:41:40.601Z,15.83
2018-01-28T21:44:08.888Z,13.60
2018-01-28T21:46:37.181Z,13.60
2018-01-28T21:49:05.477Z,11.70
2018-01-28T21:51:33.783Z,13.73
2018-01-28T21:54:02.085Z,15.23
2018-01-28T21:56:30.382Z,12.53
2018-01-28T21:58:58.513Z,17.23
2018-01-28T22:01:26.804Z,14.97
2018-01-28T22:03:55.094Z,13.57
2018-01-28T22:06:23.403Z,16.70
2018-01-28T22:08:51.505Z,12.83
2018-01-28T22:11:20.689Z,14.73
2018-01-28T22:13:48.985Z,14.10
2018-01-28T22:16:18.042Z,16.40
2018-01-28T22:18:46.398Z,14.87
2018-01-28T22:21:14.673Z,11.53
2018-01-28T22:23:43.277Z,14.20
2018-01-28T22:26:11.674Z,13.40
2018-01-28T22:28:39.954Z,8.03
2018-01-28T22:31:08.222Z,13.30
2018-01-28T22:33:36.510Z,9.93
2018-01-28T22:36:04.832Z,13.40
2018-01-28T22:38:33.092Z,13.97
2018-01-28T22:41:01.403Z,13.30
2018-01-28T22:43:29.688Z,8.87
2018-01-28T22:45:57.970Z,16.17
2018-01-28T22:48:26.252Z,12.50
2018-01-28T22:50:54.522Z,15.07
2018-01-28T22:53:22.839Z,13.10
2018-01-28T22:55:51.134Z,11.10
2018-01-28T23:00:51.668Z,14.50
2018-01-28T23:03:19.943Z,6.47
2018-01-28T23:05:49.015Z,9.57
2018-01-28T23:08:17.325Z,10.63
2018-01-28T23:10:46.361Z,10.07
2018-01-28T23:13:14.636Z,12.47
2018-01-28T23:15:42.332Z,12.57
2018-01-28T23:18:10.608Z,8.80
2018-01-28T23:20:38.871Z,10.43
2018-01-28T23:23:07.162Z,13.20
2018-01-28T23:25:36.177Z,9.83
2018-01-28T23:28:04.471Z,10.83
2018-01-28T23:30:32.748Z,15.60
2018-01-28T23:33:01.005Z,9.87
2018-01-28T23:35:29.310Z,6.10
2018-01-28T23:37:57.261Z,10.90
2018-01-28T23:40:25.665Z,9.70
2018-01-28T23:42:53.921Z,5.93
2018-01-28T23:45:22.225Z,5.57
2018-01-28T23:47:50.505Z,8.50
2018-01-28T23:50:18.560Z,6.40
2018-01-28T23:52:46.832Z,5.53
2018-01-28T23:55:15.107Z,6.87
2018-01-28T23:57:43.376Z,10.17
